sensor_id;sensor_type;location;lat;lon;timestamp;temperature;humidity
37456;DHT22;23316;50.718;7.328;2023-04-15T00:02:17;11.50;43.30
37456;DHT22;23316;50.718;7.328;2023-04-15T00:04:45;11.50;43.40
37456;DHT22;23316;50.718;7.328;2023-04-15T00:07:12;11.40;43.40
37456;DHT22;23316;50.718;7.328;2023-04-15T00:09:40;11.40;43.50
37456;DHT22;23316;50.718;7.328;2023-04-15T00:12:08;11.30;43.50
37456;DHT22;23316;50.718;7.328;2023-04-15T00:14:35;11.30;43.60
37456;DHT22;23316;50.718;7.328;2023-04-15T00:17:04;11.20;43.60
37456;DHT22;23316;50.718;7.328;2023-04-15T00:19:31;11.20;43.70
37456;DHT22;23316;50.718;7.328;2023-04-15T00:21:59;11.20;43.70
37456;DHT22;23316;50.718;7.328;2023-04-15T00:24:26;11.10;43.80
37456;DHT22;23316;50.718;7.328;2023-04-15T00:26:54;11.10;43.90
37456;DHT22;23316;50.718;7.328;2023-04-15T00:29:21;11.10;43.90
37456;DHT22;23316;50.718;7.328;2023-04-15T00:31:49;11.00;43.90
37456;DHT22;23316;50.718;7.328;2023-04-15T00:34:17;11.00;44.00
37456;DHT22;23316;50.718;7.328;2023-04-15T00:36:45;11.00;44.10
37456;DHT22;23316;50.718;7.328;2023-04-15T00:39:12;10.90;44.10
37456;DHT22;23316;50.718;7.328;2023-04-15T00:41:41;10.90;44.20
37456;DHT22;23316;50.718;7.328;2023-04-15T00:44:09;10.90;44.30
37456;DHT22;23316;50.718;7.328;2023-04-15T00:46:37;10.90;44.30
37456;DHT22;23316;50.718;7.328;2023-04-15T00:49:05;10.80;44.40
37456;DHT22;23316;50.718;7.328;2023-04-15T00:51:34;10.80;44.50
37456;DHT22;23316;50.718;7.328;2023-04-15T00:54:02;10.80;44.50
37456;DHT22;23316;50.718;7.328;2023-04-15T00:56:30;10.80;44.60
37456;DHT22;23316;50.718;7.328;2023-04-15T00:59:01;10.70;44.60
37456;DHT22;23316;50.718;7.328;2023-04-15T01:01:29;10.70;44.60
37456;DHT22;23316;50.718;7.328;2023-04-15T01:03:57;10.70;44.60
37456;DHT22;23316;50.718;7.328;2023-04-15T01:06:25;10.70;44.70
37456;DHT22;23316;50.718;7.328;2023-04-15T01:08:55;10.70;44.70
37456;DHT22;23316;50.718;7.328;2023-04-15T01:11:23;10.70;44.90
37456;DHT22;23316;50.718;7.328;2023-04-15T01:13:51;10.60;44.80
37456;DHT22;23316;50.718;7.328;2023-04-15T01:16:19;10.60;44.80
37456;DHT22;23316;50.718;7.328;2023-04-15T01:18:46;10.60;44.90
37456;DHT22;23316;50.718;7.328;2023-04-15T01:21:14;10.60;45.00
37456;DHT22;23316;50.718;7.328;2023-04-15T01:23:44;10.60;45.10
37456;DHT22;23316;50.718;7.328;2023-04-15T01:26:14;10.60;45.20
37456;DHT22;23316;50.718;7.328;2023-04-15T01:28:44;10.50;45.10
37456;DHT22;23316;50.718;7.328;2023-04-15T01:31:13;10.50;45.10
37456;DHT22;23316;50.718;7.328;2023-04-15T01:33:41;10.50;45.20
37456;DHT22;23316;50.718;7.328;2023-04-15T01:36:09;10.50;45.20
37456;DHT22;23316;50.718;7.328;2023-04-15T01:38:37;10.50;45.30
37456;DHT22;23316;50.718;7.328;2023-04-15T01:41:04;10.40;45.30
37456;DHT22;23316;50.718;7.328;2023-04-15T01:43:34;10.40;45.40
37456;DHT22;23316;50.718;7.328;2023-04-15T01:46:02;10.40;45.40
37456;DHT22;23316;50.718;7.328;2023-04-15T01:48:29;10.40;45.50
37456;DHT22;23316;50.718;7.328;2023-04-15T01:50:58;10.30;45.50
37456;DHT22;23316;50.718;7.328;2023-04-15T01:53:25;10.30;45.60
37456;DHT22;23316;50.718;7.328;2023-04-15T01:55:53;10.30;45.70
37456;DHT22;23316;50.718;7.328;2023-04-15T01:58:20;10.30;45.70
37456;DHT22;23316;50.718;7.328;2023-04-15T02:00:50;10.20;45.70
37456;DHT22;23316;50.718;7.328;2023-04-15T02:03:18;10.20;45.90
37456;DHT22;23316;50.718;7.328;2023-04-15T02:05:46;10.20;46.00
37456;DHT22;23316;50.718;7.328;2023-04-15T02:08:13;10.20;46.00
37456;DHT22;23316;50.718;7.328;2023-04-15T02:10:40;10.10;46.00
37456;DHT22;23316;50.718;7.328;2023-04-15T02:13:19;10.10;46.00
37456;DHT22;23316;50.718;7.328;2023-04-15T02:15:47;10.10;46.10
37456;DHT22;23316;50.718;7.328;2023-04-15T02:18:15;10.10;46.10
37456;DHT22;23316;50.718;7.328;2023-04-15T02:20:45;10.10;46.10
37456;DHT22;23316;50.718;7.328;2023-04-15T02:23:13;10.10;46.10
37456;DHT22;23316;50.718;7.328;2023-04-15T02:25:40;10.00;46.20
37456;DHT22;23316;50.718;7.328;2023-04-15T02:28:08;10.00;46.20
37456;DHT22;23316;50.718;7.328;2023-04-15T02:30:35;10.00;46.30
37456;DHT22;23316;50.718;7.328;2023-04-15T02:33:02;9.90;46.40
37456;DHT22;23316;50.718;7.328;2023-04-15T02:35:32;9.90;46.40
37456;DHT22;23316;50.718;7.328;2023-04-15T02:38:01;9.90;46.60
37456;DHT22;23316;50.718;7.328;2023-04-15T02:40:28;9.90;46.50
37456;DHT22;23316;50.718;7.328;2023-04-15T02:42:55;9.90;46.60
37456;DHT22;23316;50.718;7.328;2023-04-15T02:45:22;9.80;46.60
37456;DHT22;23316;50.718;7.328;2023-04-15T02:47:52;9.80;46.70
37456;DHT22;23316;50.718;7.328;2023-04-15T02:50:19;9.80;46.70
37456;DHT22;23316;50.718;7.328;2023-04-15T02:52:49;9.80;46.70
37456;DHT22;23316;50.718;7.328;2023-04-15T02:55:17;9.80;46.70
37456;DHT22;23316;50.718;7.328;2023-04-15T02:57:47;9.80;46.80
37456;DHT22;23316;50.718;7.328;2023-04-15T03:00:14;9.80;46.90
37456;DHT22;23316;50.718;7.328;2023-04-15T03:02:43;9.80;46.80
37456;DHT22;23316;50.718;7.328;2023-04-15T03:05:14;9.70;46.90
37456;DHT22;23316;50.718;7.328;2023-04-15T03:07:43;9.70;46.90
37456;DHT22;23316;50.718;7.328;2023-04-15T03:10:12;9.70;47.00
37456;DHT22;23316;50.718;7.328;2023-04-15T03:12:39;9.70;47.10
37456;DHT22;23316;50.718;7.328;2023-04-15T03:15:08;9.70;47.00
37456;DHT22;23316;50.718;7.328;2023-04-15T03:17:36;9.70;47.00
37456;DHT22;23316;50.718;7.328;2023-04-15T03:20:04;9.70;47.10
37456;DHT22;23316;50.718;7.328;2023-04-15T03:22:32;9.60;47.10
37456;DHT22;23316;50.718;7.328;2023-04-15T03:24:59;9.60;47.10
37456;DHT22;23316;50.718;7.328;2023-04-15T03:27:28;9.60;47.10
37456;DHT22;23316;50.718;7.328;2023-04-15T03:29:55;9.60;47.20
37456;DHT22;23316;50.718;7.328;2023-04-15T03:32:23;9.60;47.20
37456;DHT22;23316;50.718;7.328;2023-04-15T03:34:50;9.60;47.30
37456;DHT22;23316;50.718;7.328;2023-04-15T03:37:17;9.60;47.30
37456;DHT22;23316;50.718;7.328;2023-04-15T03:39:45;9.60;47.30
37456;DHT22;23316;50.718;7.328;2023-04-15T03:42:12;9.60;47.30
37456;DHT22;23316;50.718;7.328;2023-04-15T03:44:41;9.50;47.40
37456;DHT22;23316;50.718;7.328;2023-04-15T03:47:08;9.50;47.30
37456;DHT22;23316;50.718;7.328;2023-04-15T03:49:36;9.50;47.30
37456;DHT22;23316;50.718;7.328;2023-04-15T03:52:03;9.50;47.40
37456;DHT22;23316;50.718;7.328;2023-04-15T03:54:31;9.50;47.40
37456;DHT22;23316;50.718;7.328;2023-04-15T03:56:58;9.50;47.40
37456;DHT22;23316;50.718;7.328;2023-04-15T03:59:26;9.50;47.40
37456;DHT22;23316;50.718;7.328;2023-04-15T04:01:55;9.50;47.40
37456;DHT22;23316;50.718;7.328;2023-04-15T04:04:22;9.50;47.50
37456;DHT22;23316;50.718;7.328;2023-04-15T04:06:49;9.50;47.50
37456;DHT22;23316;50.718;7.328;2023-04-15T04:09:16;9.50;47.50
37456;DHT22;23316;50.718;7.328;2023-04-15T04:11:47;9.40;47.50
37456;DHT22;23316;50.718;7.328;2023-04-15T04:14:14;9.40;47.60
37456;DHT22;23316;50.718;7.328;2023-04-15T04:16:41;9.40;47.50
37456;DHT22;23316;50.718;7.328;2023-04-15T04:19:11;9.40;47.60
37456;DHT22;23316;50.718;7.328;2023-04-15T04:21:39;9.40;47.60
37456;DHT22;23316;50.718;7.328;2023-04-15T04:24:06;9.40;47.70
37456;DHT22;23316;50.718;7.328;2023-04-15T04:26:34;9.40;47.80
37456;DHT22;23316;50.718;7.328;2023-04-15T04:29:01;9.40;47.80
37456;DHT22;23316;50.718;7.328;2023-04-15T04:31:28;9.30;47.70
37456;DHT22;23316;50.718;7.328;2023-04-15T04:33:56;9.30;47.70
37456;DHT22;23316;50.718;7.328;2023-04-15T04:36:24;9.30;47.60
37456;DHT22;23316;50.718;7.328;2023-04-15T04:38:52;9.30;47.60
37456;DHT22;23316;50.718;7.328;2023-04-15T04:41:19;9.20;47.60
37456;DHT22;23316;50.718;7.328;2023-04-15T04:43:46;9.20;47.60
37456;DHT22;23316;50.718;7.328;2023-04-15T04:46:14;9.20;47.70
37456;DHT22;23316;50.718;7.328;2023-04-15T04:48:41;9.20;47.80
37456;DHT22;23316;50.718;7.328;2023-04-15T04:51:08;9.20;47.80
37456;DHT22;23316;50.718;7.328;2023-04-15T04:53:37;9.10;47.90
37456;DHT22;23316;50.718;7.328;2023-04-15T04:56:07;9.10;47.90
37456;DHT22;23316;50.718;7.328;2023-04-15T04:58:35;9.10;47.90
37456;DHT22;23316;50.718;7.328;2023-04-15T05:01:03;9.10;48.00
37456;DHT22;23316;50.718;7.328;2023-04-15T05:03:30;9.10;48.10
37456;DHT22;23316;50.718;7.328;2023-04-15T05:05:57;9.10;48.10
37456;DHT22;23316;50.718;7.328;2023-04-15T05:08:25;9.00;48.10
37456;DHT22;23316;50.718;7.328;2023-04-15T05:10:53;9.00;48.20
37456;DHT22;23316;50.718;7.328;2023-04-15T05:13:20;9.00;48.30
37456;DHT22;23316;50.718;7.328;2023-04-15T05:15:48;9.00;48.30
37456;DHT22;23316;50.718;7.328;2023-04-15T05:18:15;9.00;48.40
37456;DHT22;23316;50.718;7.328;2023-04-15T05:20:42;9.00;48.40
37456;DHT22;23316;50.718;7.328;2023-04-15T05:23:11;9.00;48.50
37456;DHT22;23316;50.718;7.328;2023-04-15T05:25:38;9.00;48.50
37456;DHT22;23316;50.718;7.328;2023-04-15T05:28:07;9.00;48.50
37456;DHT22;23316;50.718;7.328;2023-04-15T05:30:34;9.00;48.60
37456;DHT22;23316;50.718;7.328;2023-04-15T05:33:03;9.00;48.60
37456;DHT22;23316;50.718;7.328;2023-04-15T05:35:30;9.00;48.70
37456;DHT22;23316;50.718;7.328;2023-04-15T05:37:57;9.00;48.80
37456;DHT22;23316;50.718;7.328;2023-04-15T05:40:25;9.00;48.90
37456;DHT22;23316;50.718;7.328;2023-04-15T05:42:53;9.00;48.90
37456;DHT22;23316;50.718;7.328;2023-04-15T05:45:22;9.10;49.10
37456;DHT22;23316;50.718;7.328;2023-04-15T05:47:50;9.10;49.30
37456;DHT22;23316;50.718;7.328;2023-04-15T05:50:19;9.20;49.40
37456;DHT22;23316;50.718;7.328;2023-04-15T05:52:47;9.20;49.40
37456;DHT22;23316;50.718;7.328;2023-04-15T05:55:15;9.20;49.40
37456;DHT22;23316;50.718;7.328;2023-04-15T05:57:42;9.30;49.50
37456;DHT22;23316;50.718;7.328;2023-04-15T06:00:11;9.30;49.60
37456;DHT22;23316;50.718;7.328;2023-04-15T06:02:43;9.30;49.80
37456;DHT22;23316;50.718;7.328;2023-04-15T06:05:10;9.40;50.10
37456;DHT22;23316;50.718;7.328;2023-04-15T06:07:38;9.50;50.20
37456;DHT22;23316;50.718;7.328;2023-04-15T06:10:07;9.50;50.20
37456;DHT22;23316;50.718;7.328;2023-04-15T06:12:34;9.50;49.40
37456;DHT22;23316;50.718;7.328;2023-04-15T06:15:01;9.40;49.10
37456;DHT22;23316;50.718;7.328;2023-04-15T06:17:29;9.20;49.40
37456;DHT22;23316;50.718;7.328;2023-04-15T06:20:00;9.10;49.60
37456;DHT22;23316;50.718;7.328;2023-04-15T06:22:27;9.00;49.90
37456;DHT22;23316;50.718;7.328;2023-04-15T06:24:54;9.00;50.20
37456;DHT22;23316;50.718;7.328;2023-04-15T06:27:21;8.90;50.30
37456;DHT22;23316;50.718;7.328;2023-04-15T06:29:49;8.90;50.50
37456;DHT22;23316;50.718;7.328;2023-04-15T06:32:16;9.00;50.80
37456;DHT22;23316;50.718;7.328;2023-04-15T06:34:43;9.00;51.30
37456;DHT22;23316;50.718;7.328;2023-04-15T06:37:14;9.10;51.50
37456;DHT22;23316;50.718;7.328;2023-04-15T06:39:41;9.20;51.60
37456;DHT22;23316;50.718;7.328;2023-04-15T06:42:09;9.30;51.70
37456;DHT22;23316;50.718;7.328;2023-04-15T06:44:37;9.40;51.70
37456;DHT22;23316;50.718;7.328;2023-04-15T06:47:04;9.50;51.70
37456;DHT22;23316;50.718;7.328;2023-04-15T06:49:31;9.70;51.70
37456;DHT22;23316;50.718;7.328;2023-04-15T06:52:00;9.80;51.70
37456;DHT22;23316;50.718;7.328;2023-04-15T06:54:28;9.90;51.60
37456;DHT22;23316;50.718;7.328;2023-04-15T06:56:55;10.10;51.70
37456;DHT22;23316;50.718;7.328;2023-04-15T06:59:23;10.20;51.50
37456;DHT22;23316;50.718;7.328;2023-04-15T07:01:50;10.30;51.30
37456;DHT22;23316;50.718;7.328;2023-04-15T07:04:17;10.40;51.20
37456;DHT22;23316;50.718;7.328;2023-04-15T07:06:45;10.50;51.00
37456;DHT22;23316;50.718;7.328;2023-04-15T07:09:12;10.60;50.80
37456;DHT22;23316;50.718;7.328;2023-04-15T07:11:41;10.70;50.80
37456;DHT22;23316;50.718;7.328;2023-04-15T07:14:09;10.80;51.20
37456;DHT22;23316;50.718;7.328;2023-04-15T07:16:36;10.90;51.30
37456;DHT22;23316;50.718;7.328;2023-04-15T07:19:03;11.00;51.20
37456;DHT22;23316;50.718;7.328;2023-04-15T07:21:30;11.00;51.20
37456;DHT22;23316;50.718;7.328;2023-04-15T07:23:58;11.10;51.30
37456;DHT22;23316;50.718;7.328;2023-04-15T07:26:25;11.10;51.50
37456;DHT22;23316;50.718;7.328;2023-04-15T07:28:54;11.20;51.70
37456;DHT22;23316;50.718;7.328;2023-04-15T07:31:21;11.20;51.50
37456;DHT22;23316;50.718;7.328;2023-04-15T07:33:48;11.30;51.40
37456;DHT22;23316;50.718;7.328;2023-04-15T07:36:16;11.30;51.90
37456;DHT22;23316;50.718;7.328;2023-04-15T07:38:43;11.30;51.70
37456;DHT22;23316;50.718;7.328;2023-04-15T07:41:11;11.40;51.70
37456;DHT22;23316;50.718;7.328;2023-04-15T07:43:38;11.50;51.80
37456;DHT22;23316;50.718;7.328;2023-04-15T07:46:07;11.60;51.80
37456;DHT22;23316;50.718;7.328;2023-04-15T07:48:34;11.60;51.20
37456;DHT22;23316;50.718;7.328;2023-04-15T07:51:01;11.70;51.00
37456;DHT22;23316;50.718;7.328;2023-04-15T07:53:29;11.80;51.00
37456;DHT22;23316;50.718;7.328;2023-04-15T07:55:57;11.80;50.90
37456;DHT22;23316;50.718;7.328;2023-04-15T07:58:25;11.90;51.00
37456;DHT22;23316;50.718;7.328;2023-04-15T08:00:52;11.90;51.00
37456;DHT22;23316;50.718;7.328;2023-04-15T08:03:23;12.00;51.00
37456;DHT22;23316;50.718;7.328;2023-04-15T08:05:51;12.00;50.80
37456;DHT22;23316;50.718;7.328;2023-04-15T08:08:19;12.10;50.50
37456;DHT22;23316;50.718;7.328;2023-04-15T08:10:49;12.10;50.50
37456;DHT22;23316;50.718;7.328;2023-04-15T08:13:16;12.10;50.50
37456;DHT22;23316;50.718;7.328;2023-04-15T08:15:44;12.20;50.50
37456;DHT22;23316;50.718;7.328;2023-04-15T08:18:11;12.20;50.50
37456;DHT22;23316;50.718;7.328;2023-04-15T08:20:40;12.30;50.50
37456;DHT22;23316;50.718;7.328;2023-04-15T08:23:07;12.40;50.50
37456;DHT22;23316;50.718;7.328;2023-04-15T08:25:35;12.40;50.20
37456;DHT22;23316;50.718;7.328;2023-04-15T08:28:03;12.50;50.10
37456;DHT22;23316;50.718;7.328;2023-04-15T08:30:32;12.50;49.80
37456;DHT22;23316;50.718;7.328;2023-04-15T08:32:59;12.50;49.40
37456;DHT22;23316;50.718;7.328;2023-04-15T08:35:27;12.60;49.30
37456;DHT22;23316;50.718;7.328;2023-04-15T08:37:55;12.70;49.30
37456;DHT22;23316;50.718;7.328;2023-04-15T08:40:25;12.70;49.50
37456;DHT22;23316;50.718;7.328;2023-04-15T08:42:56;12.80;49.00
37456;DHT22;23316;50.718;7.328;2023-04-15T08:45:25;12.90;49.10
37456;DHT22;23316;50.718;7.328;2023-04-15T08:47:54;12.90;49.00
37456;DHT22;23316;50.718;7.328;2023-04-15T08:50:23;13.00;48.60
37456;DHT22;23316;50.718;7.328;2023-04-15T08:52:55;13.00;48.80
37456;DHT22;23316;50.718;7.328;2023-04-15T08:55:22;13.10;48.20
37456;DHT22;23316;50.718;7.328;2023-04-15T08:57:50;13.20;48.80
37456;DHT22;23316;50.718;7.328;2023-04-15T09:00:18;13.30;49.10
37456;DHT22;23316;50.718;7.328;2023-04-15T09:02:45;13.30;49.00
37456;DHT22;23316;50.718;7.328;2023-04-15T09:05:16;13.40;47.20
37456;DHT22;23316;50.718;7.328;2023-04-15T09:07:43;13.40;46.40
37456;DHT22;23316;50.718;7.328;2023-04-15T09:10:12;13.50;44.80
37456;DHT22;23316;50.718;7.328;2023-04-15T09:12:39;13.50;44.80
37456;DHT22;23316;50.718;7.328;2023-04-15T09:15:09;13.50;43.70
37456;DHT22;23316;50.718;7.328;2023-04-15T09:17:41;13.60;43.80
37456;DHT22;23316;50.718;7.328;2023-04-15T09:20:10;13.60;42.90
37456;DHT22;23316;50.718;7.328;2023-04-15T09:22:39;13.60;42.80
37456;DHT22;23316;50.718;7.328;2023-04-15T09:25:24;13.60;42.70
37456;DHT22;23316;50.718;7.328;2023-04-15T09:27:53;13.70;43.40
37456;DHT22;23316;50.718;7.328;2023-04-15T09:44:24;13.90;42.80
37456;DHT22;23316;50.718;7.328;2023-04-15T09:46:51;14.00;41.60
37456;DHT22;23316;50.718;7.328;2023-04-15T09:49:18;14.00;42.30
37456;DHT22;23316;50.718;7.328;2023-04-15T09:51:45;14.00;41.60
37456;DHT22;23316;50.718;7.328;2023-04-15T09:54:18;14.00;41.60
37456;DHT22;23316;50.718;7.328;2023-04-15T09:56:46;14.10;41.40
37456;DHT22;23316;50.718;7.328;2023-04-15T09:59:13;14.20;42.10
37456;DHT22;23316;50.718;7.328;2023-04-15T10:01:42;14.20;42.70
37456;DHT22;23316;50.718;7.328;2023-04-15T10:04:09;14.30;42.70
37456;DHT22;23316;50.718;7.328;2023-04-15T10:06:38;14.30;43.10
37456;DHT22;23316;50.718;7.328;2023-04-15T10:09:06;14.40;43.10
37456;DHT22;23316;50.718;7.328;2023-04-15T10:11:34;14.40;43.40
37456;DHT22;23316;50.718;7.328;2023-04-15T10:14:02;14.30;42.60
37456;DHT22;23316;50.718;7.328;2023-04-15T10:16:31;14.40;42.70
37456;DHT22;23316;50.718;7.328;2023-04-15T10:19:01;14.40;42.20
37456;DHT22;23316;50.718;7.328;2023-04-15T10:21:29;14.40;42.80
37456;DHT22;23316;50.718;7.328;2023-04-15T10:23:57;14.50;43.60
37456;DHT22;23316;50.718;7.328;2023-04-15T10:26:25;14.50;42.80
37456;DHT22;23316;50.718;7.328;2023-04-15T10:28:53;14.50;42.40
37456;DHT22;23316;50.718;7.328;2023-04-15T10:31:22;14.50;42.20
37456;DHT22;23316;50.718;7.328;2023-04-15T10:33:49;14.50;42.00
37456;DHT22;23316;50.718;7.328;2023-04-15T10:36:20;14.40;42.10
37456;DHT22;23316;50.718;7.328;2023-04-15T10:38:47;14.40;43.20
37456;DHT22;23316;50.718;7.328;2023-04-15T10:41:17;14.50;42.50
37456;DHT22;23316;50.718;7.328;2023-04-15T10:43:47;14.50;42.90
37456;DHT22;23316;50.718;7.328;2023-04-15T10:46:17;14.50;43.50
37456;DHT22;23316;50.718;7.328;2023-04-15T10:48:49;14.60;44.00
37456;DHT22;23316;50.718;7.328;2023-04-15T10:51:29;14.60;43.40
37456;DHT22;23316;50.718;7.328;2023-04-15T10:53:57;14.70;43.00
37456;DHT22;23316;50.718;7.328;2023-04-15T10:56:27;14.70;42.80
37456;DHT22;23316;50.718;7.328;2023-04-15T10:58:57;14.70;43.10
37456;DHT22;23316;50.718;7.328;2023-04-15T11:01:51;14.80;43.80
37456;DHT22;23316;50.718;7.328;2023-04-15T11:04:52;14.80;43.80
37456;DHT22;23316;50.718;7.328;2023-04-15T11:07:51;14.70;43.10
37456;DHT22;23316;50.718;7.328;2023-04-15T11:10:52;14.70;43.10
37456;DHT22;23316;50.718;7.328;2023-04-15T11:13:26;14.60;43.70
37456;DHT22;23316;50.718;7.328;2023-04-15T11:16:01;14.50;43.50
37456;DHT22;23316;50.718;7.328;2023-04-15T11:18:30;14.60;43.90
37456;DHT22;23316;50.718;7.328;2023-04-15T11:20:59;14.50;43.30
37456;DHT22;23316;50.718;7.328;2023-04-15T11:23:31;14.50;43.80
37456;DHT22;23316;50.718;7.328;2023-04-15T11:26:00;14.50;44.40
37456;DHT22;23316;50.718;7.328;2023-04-15T11:28:29;14.50;44.20
37456;DHT22;23316;50.718;7.328;2023-04-15T11:30:57;14.50;44.40
37456;DHT22;23316;50.718;7.328;2023-04-15T11:33:25;14.50;44.70
37456;DHT22;23316;50.718;7.328;2023-04-15T11:35:52;14.50;45.10
37456;DHT22;23316;50.718;7.328;2023-04-15T11:38:20;14.50;45.10
37456;DHT22;23316;50.718;7.328;2023-04-15T11:40:50;14.50;45.40
37456;DHT22;23316;50.718;7.328;2023-04-15T11:43:19;14.50;45.30
37456;DHT22;23316;50.718;7.328;2023-04-15T11:45:52;14.40;45.10
37456;DHT22;23316;50.718;7.328;2023-04-15T11:48:20;14.40;45.60
37456;DHT22;23316;50.718;7.328;2023-04-15T11:50:53;14.40;45.90
37456;DHT22;23316;50.718;7.328;2023-04-15T11:53:21;14.30;45.40
37456;DHT22;23316;50.718;7.328;2023-04-15T11:55:51;14.30;45.70
37456;DHT22;23316;50.718;7.328;2023-04-15T11:58:20;14.30;45.80
37456;DHT22;23316;50.718;7.328;2023-04-15T12:00:49;14.30;46.20
37456;DHT22;23316;50.718;7.328;2023-04-15T12:03:22;14.30;46.50
37456;DHT22;23316;50.718;7.328;2023-04-15T12:06:08;14.30;46.10
37456;DHT22;23316;50.718;7.328;2023-04-15T12:08:59;14.30;46.30
37456;DHT22;23316;50.718;7.328;2023-04-15T12:11:29;14.30;46.50
37456;DHT22;23316;50.718;7.328;2023-04-15T12:13:59;14.40;46.50
37456;DHT22;23316;50.718;7.328;2023-04-15T12:16:29;14.30;46.40
37456;DHT22;23316;50.718;7.328;2023-04-15T12:18:58;14.30;46.50
37456;DHT22;23316;50.718;7.328;2023-04-15T12:21:27;14.30;46.60
37456;DHT22;23316;50.718;7.328;2023-04-15T12:23:55;14.20;46.80
37456;DHT22;23316;50.718;7.328;2023-04-15T12:26:28;14.20;47.10
37456;DHT22;23316;50.718;7.328;2023-04-15T12:29:00;14.10;47.20
37456;DHT22;23316;50.718;7.328;2023-04-15T12:31:28;14.00;47.50
37456;DHT22;23316;50.718;7.328;2023-04-15T12:33:56;14.00;47.50
37456;DHT22;23316;50.718;7.328;2023-04-15T12:36:23;13.90;47.60
37456;DHT22;23316;50.718;7.328;2023-04-15T12:38:50;13.90;47.80
37456;DHT22;23316;50.718;7.328;2023-04-15T12:41:19;13.90;47.60
37456;DHT22;23316;50.718;7.328;2023-04-15T12:43:48;13.90;47.80
37456;DHT22;23316;50.718;7.328;2023-04-15T12:46:16;13.80;48.00
37456;DHT22;23316;50.718;7.328;2023-04-15T12:48:43;13.70;48.10
37456;DHT22;23316;50.718;7.328;2023-04-15T12:51:11;13.60;48.30
37456;DHT22;23316;50.718;7.328;2023-04-15T12:53:38;13.60;48.80
37456;DHT22;23316;50.718;7.328;2023-04-15T12:56:05;13.50;48.90
37456;DHT22;23316;50.718;7.328;2023-04-15T12:58:33;13.50;49.30
37456;DHT22;23316;50.718;7.328;2023-04-15T13:01:01;13.50;49.20
37456;DHT22;23316;50.718;7.328;2023-04-15T13:03:28;13.50;49.80
37456;DHT22;23316;50.718;7.328;2023-04-15T13:05:56;13.40;50.00
37456;DHT22;23316;50.718;7.328;2023-04-15T13:08:24;13.40;49.90
37456;DHT22;23316;50.718;7.328;2023-04-15T13:10:51;13.30;50.60
37456;DHT22;23316;50.718;7.328;2023-04-15T13:13:18;13.30;50.70
37456;DHT22;23316;50.718;7.328;2023-04-15T13:15:46;13.20;50.80
37456;DHT22;23316;50.718;7.328;2023-04-15T13:18:14;13.20;51.20
37456;DHT22;23316;50.718;7.328;2023-04-15T13:20:42;13.10;51.30
37456;DHT22;23316;50.718;7.328;2023-04-15T13:23:09;13.10;51.50
37456;DHT22;23316;50.718;7.328;2023-04-15T13:25:36;13.10;51.70
37456;DHT22;23316;50.718;7.328;2023-04-15T13:28:03;13.10;51.80
37456;DHT22;23316;50.718;7.328;2023-04-15T13:30:30;13.10;52.20
37456;DHT22;23316;50.718;7.328;2023-04-15T13:32:58;13.10;52.40
37456;DHT22;23316;50.718;7.328;2023-04-15T13:35:26;13.10;52.50
37456;DHT22;23316;50.718;7.328;2023-04-15T13:37:54;13.10;52.70
37456;DHT22;23316;50.718;7.328;2023-04-15T13:40:21;13.00;52.60
37456;DHT22;23316;50.718;7.328;2023-04-15T13:42:49;13.00;52.60
37456;DHT22;23316;50.718;7.328;2023-04-15T13:45:17;13.00;52.90
37456;DHT22;23316;50.718;7.328;2023-04-15T13:47:44;12.90;52.90
37456;DHT22;23316;50.718;7.328;2023-04-15T13:50:11;12.90;53.30
37456;DHT22;23316;50.718;7.328;2023-04-15T13:52:40;12.90;53.30
37456;DHT22;23316;50.718;7.328;2023-04-15T13:55:08;12.90;53.60
37456;DHT22;23316;50.718;7.328;2023-04-15T13:57:35;12.90;53.80
37456;DHT22;23316;50.718;7.328;2023-04-15T14:00:03;12.80;54.00
37456;DHT22;23316;50.718;7.328;2023-04-15T14:02:31;12.80;54.10
37456;DHT22;23316;50.718;7.328;2023-04-15T14:04:58;12.70;54.50
37456;DHT22;23316;50.718;7.328;2023-04-15T14:07:26;12.70;54.60
37456;DHT22;23316;50.718;7.328;2023-04-15T14:09:56;12.70;54.40
37456;DHT22;23316;50.718;7.328;2023-04-15T14:12:23;12.70;54.60
37456;DHT22;23316;50.718;7.328;2023-04-15T14:14:50;12.70;54.70
37456;DHT22;23316;50.718;7.328;2023-04-15T14:17:17;12.60;54.80
37456;DHT22;23316;50.718;7.328;2023-04-15T14:19:45;12.50;55.10
37456;DHT22;23316;50.718;7.328;2023-04-15T14:22:12;12.50;55.20
37456;DHT22;23316;50.718;7.328;2023-04-15T14:24:39;12.50;55.40
37456;DHT22;23316;50.718;7.328;2023-04-15T14:27:08;12.50;55.80
37456;DHT22;23316;50.718;7.328;2023-04-15T14:29:37;12.50;55.80
37456;DHT22;23316;50.718;7.328;2023-04-15T14:32:05;12.50;56.00
37456;DHT22;23316;50.718;7.328;2023-04-15T14:34:32;12.40;56.30
37456;DHT22;23316;50.718;7.328;2023-04-15T14:37:01;12.30;56.50
37456;DHT22;23316;50.718;7.328;2023-04-15T14:39:28;12.30;56.60
37456;DHT22;23316;50.718;7.328;2023-04-15T14:41:55;12.30;56.80
37456;DHT22;23316;50.718;7.328;2023-04-15T14:44:24;12.20;56.90
37456;DHT22;23316;50.718;7.328;2023-04-15T14:46:51;12.20;57.00
37456;DHT22;23316;50.718;7.328;2023-04-15T14:49:19;12.10;57.20
37456;DHT22;23316;50.718;7.328;2023-04-15T14:51:47;12.20;57.30
37456;DHT22;23316;50.718;7.328;2023-04-15T14:54:15;12.10;57.80
37456;DHT22;23316;50.718;7.328;2023-04-15T14:56:42;12.10;58.00
37456;DHT22;23316;50.718;7.328;2023-04-15T14:59:09;12.10;58.00
37456;DHT22;23316;50.718;7.328;2023-04-15T15:01:38;12.00;58.10
37456;DHT22;23316;50.718;7.328;2023-04-15T15:04:05;12.10;58.20
37456;DHT22;23316;50.718;7.328;2023-04-15T15:06:33;12.00;58.40
37456;DHT22;23316;50.718;7.328;2023-04-15T15:09:00;12.10;58.40
37456;DHT22;23316;50.718;7.328;2023-04-15T15:11:28;12.00;58.30
37456;DHT22;23316;50.718;7.328;2023-04-15T15:13:55;12.00;58.20
37456;DHT22;23316;50.718;7.328;2023-04-15T15:16:23;12.00;58.20
37456;DHT22;23316;50.718;7.328;2023-04-15T15:18:52;12.00;58.20
37456;DHT22;23316;50.718;7.328;2023-04-15T15:21:20;12.00;58.20
37456;DHT22;23316;50.718;7.328;2023-04-15T15:23:47;11.90;58.30
37456;DHT22;23316;50.718;7.328;2023-04-15T15:26:14;12.00;58.40
37456;DHT22;23316;50.718;7.328;2023-04-15T15:28:41;12.00;58.40
37456;DHT22;23316;50.718;7.328;2023-04-15T15:31:10;12.00;58.30
37456;DHT22;23316;50.718;7.328;2023-04-15T15:33:37;12.00;58.50
37456;DHT22;23316;50.718;7.328;2023-04-15T15:36:06;12.00;58.60
37456;DHT22;23316;50.718;7.328;2023-04-15T15:38:33;12.00;58.40
37456;DHT22;23316;50.718;7.328;2023-04-15T15:41:01;12.00;58.50
37456;DHT22;23316;50.718;7.328;2023-04-15T15:43:28;12.00;58.50
37456;DHT22;23316;50.718;7.328;2023-04-15T15:45:55;12.00;58.80
37456;DHT22;23316;50.718;7.328;2023-04-15T15:48:24;12.00;58.80
37456;DHT22;23316;50.718;7.328;2023-04-15T15:50:52;11.90;58.90
37456;DHT22;23316;50.718;7.328;2023-04-15T15:53:20;11.90;59.10
37456;DHT22;23316;50.718;7.328;2023-04-15T15:55:50;11.90;59.30
37456;DHT22;23316;50.718;7.328;2023-04-15T15:58:17;11.90;59.30